sensor_id;sensor_type;location;lat;lon;timestamp;pressure;altitude;pressure_sealevel;temperature;humidity
81025;BME280;70500;50.292;6.666;2023-08-17T00:01:20;96653.53;;;23.18;65.14
81025;BME280;70500;50.292;6.666;2023-08-17T00:03:49;96649.28;;;23.17;65.00
81025;BME280;70500;50.292;6.666;2023-08-17T00:06:20;96653.53;;;23.18;66.11
81025;BME280;70500;50.292;6.666;2023-08-17T00:08:49;96652.28;;;23.19;65.42
81025;BME280;70500;50.292;6.666;2023-08-17T00:11:18;96649.28;;;23.17;65.60
81025;BME280;70500;50.292;6.666;2023-08-17T00:13:47;96657.03;;;23.19;66.17
81025;BME280;70500;50.292;6.666;2023-08-17T00:16:16;96658.28;;;23.18;66.02
81025;BME280;70500;50.292;6.666;2023-08-17T00:18:46;96658.28;;;23.18;65.71
81025;BME280;70500;50.292;6.666;2023-08-17T00:21:15;96650.53;;;23.16;66.24
81025;BME280;70500;50.292;6.666;2023-08-17T00:23:46;96653.53;;;23.18;66.14
81025;BME280;70500;50.292;6.666;2023-08-17T00:26:15;96652.78;;;23.18;65.83
81025;BME280;70500;50.292;6.666;2023-08-17T00:28:44;96651.28;;;23.17;65.75
81025;BME280;70500;50.292;6.666;2023-08-17T00:31:13;96661.78;;;23.18;66.08
81025;BME280;70500;50.292;6.666;2023-08-17T00:33:42;96663.53;;;23.16;65.64
81025;BME280;70500;50.292;6.666;2023-08-17T00:36:11;96660.03;;;23.15;65.55
81025;BME280;70500;50.292;6.666;2023-08-17T00:38:40;96657.28;;;23.15;66.02
81025;BME280;70500;50.292;6.666;2023-08-17T00:41:11;96660.03;;;23.15;66.17
81025;BME280;70500;50.292;6.666;2023-08-17T00:43:40;96660.53;;;23.14;66.11
81025;BME280;70500;50.292;6.666;2023-08-17T00:46:10;96655.28;;;23.16;66.13
81025;BME280;70500;50.292;6.666;2023-08-17T00:48:40;96663.25;;;23.14;66.02
81025;BME280;70500;50.292;6.666;2023-08-17T00:51:10;96652.28;;;23.14;65.80
81025;BME280;70500;50.292;6.666;2023-08-17T00:53:39;96657.03;;;23.13;65.74
81025;BME280;70500;50.292;6.666;2023-08-17T00:56:10;96656.28;;;23.13;66.14
81025;BME280;70500;50.292;6.666;2023-08-17T00:58:39;96645.53;;;23.15;66.02
81025;BME280;70500;50.292;6.666;2023-08-17T01:01:09;96645.53;;;23.15;66.07
81025;BME280;70500;50.292;6.666;2023-08-17T01:03:39;96645.28;;;23.13;65.56
81025;BME280;70500;50.292;6.666;2023-08-17T01:06:09;96646.03;;;23.13;65.91
81025;BME280;70500;50.292;6.666;2023-08-17T01:08:41;96647.78;;;23.16;65.85
81025;BME280;70500;50.292;6.666;2023-08-17T01:11:22;96640.81;;;23.15;66.00
81025;BME280;70500;50.292;6.666;2023-08-17T01:14:00;96637.81;;;23.13;65.60
81025;BME280;70500;50.292;6.666;2023-08-17T01:16:35;96638.56;;;23.14;65.74
81025;BME280;70500;50.292;6.666;2023-08-17T01:19:08;96628.81;;;23.13;65.48
81025;BME280;70500;50.292;6.666;2023-08-17T01:21:41;96635.81;;;23.14;66.06
81025;BME280;70500;50.292;6.666;2023-08-17T01:24:14;96638.56;;;23.14;65.48
81025;BME280;70500;50.292;6.666;2023-08-17T01:26:43;96636.06;;;23.10;66.00
81025;BME280;70500;50.292;6.666;2023-08-17T01:29:14;96634.09;;;23.11;65.84
81025;BME280;70500;50.292;6.666;2023-08-17T01:31:52;96630.81;;;23.12;65.84
81025;BME280;70500;50.292;6.666;2023-08-17T01:34:25;96629.84;;;23.10;65.55
81025;BME280;70500;50.292;6.666;2023-08-17T01:37:00;96632.81;;;23.12;65.81
81025;BME280;70500;50.292;6.666;2023-08-17T01:39:43;96629.34;;;23.11;65.80
81025;BME280;70500;50.292;6.666;2023-08-17T01:42:13;96630.81;;;23.12;65.52
81025;BME280;70500;50.292;6.666;2023-08-17T01:44:44;96625.09;;;23.10;65.43
81025;BME280;70500;50.292;6.666;2023-08-17T01:47:16;96621.81;;;23.12;65.46
81025;BME280;70500;50.292;6.666;2023-08-17T01:49:49;96621.09;;;23.11;65.61
81025;BME280;70500;50.292;6.666;2023-08-17T01:52:18;96628.34;;;23.09;65.97
81025;BME280;70500;50.292;6.666;2023-08-17T01:54:49;96633.06;;;23.14;65.73
81025;BME280;70500;50.292;6.666;2023-08-17T01:57:18;96629.09;;;23.09;65.89
81025;BME280;70500;50.292;6.666;2023-08-17T01:59:47;96630.59;;;23.10;65.88
81025;BME280;70500;50.292;6.666;2023-08-17T02:02:16;96629.34;;;23.11;65.44
81025;BME280;70500;50.292;6.666;2023-08-17T02:04:46;96626.59;;;23.11;65.57
81025;BME280;70500;50.292;6.666;2023-08-17T02:07:15;96627.84;;;23.10;65.84
81025;BME280;70500;50.292;6.666;2023-08-17T02:09:48;96618.34;;;23.11;65.46
81025;BME280;70500;50.292;6.666;2023-08-17T02:12:17;96615.63;;;23.11;65.75
81025;BME280;70500;50.292;6.666;2023-08-17T02:14:46;96616.09;;;23.10;65.23
81025;BME280;70500;50.292;6.666;2023-08-17T02:17:15;96620.34;;;23.11;65.72
81025;BME280;70500;50.292;6.666;2023-08-17T02:19:47;96624.84;;;23.08;65.52
81025;BME280;70500;50.292;6.666;2023-08-17T02:22:16;96621.09;;;23.06;65.50
81025;BME280;70500;50.292;6.666;2023-08-17T02:24:46;96612.63;;;23.09;65.64
81025;BME280;70500;50.292;6.666;2023-08-17T02:27:17;96616.59;;;23.08;65.50
81025;BME280;70500;50.292;6.666;2023-08-17T02:29:46;96621.34;;;23.08;65.28
81025;BME280;70500;50.292;6.666;2023-08-17T02:32:15;96623.09;;;23.05;65.37
81025;BME280;70500;50.292;6.666;2023-08-17T02:34:44;96617.34;;;23.09;65.17
81025;BME280;70500;50.292;6.666;2023-08-17T02:37:13;96623.59;;;23.09;65.15
81025;BME280;70500;50.292;6.666;2023-08-17T02:39:42;96612.09;;;23.05;65.24
81025;BME280;70500;50.292;6.666;2023-08-17T02:42:11;96618.84;;;23.04;65.55
81025;BME280;70500;50.292;6.666;2023-08-17T02:44:42;96615.59;;;23.06;65.82
81025;BME280;70500;50.292;6.666;2023-08-17T02:47:11;96619.34;;;23.03;65.45
81025;BME280;70500;50.292;6.666;2023-08-17T02:49:40;96612.34;;;23.02;65.37
81025;BME280;70500;50.292;6.666;2023-08-17T02:52:10;96619.09;;;23.00;65.89
81025;BME280;70500;50.292;6.666;2023-08-17T02:54:39;96607.63;;;23.02;65.68
81025;BME280;70500;50.292;6.666;2023-08-17T02:57:08;96611.84;;;23.03;65.80
81025;BME280;70500;50.292;6.666;2023-08-17T02:59:37;96616.34;;;23.06;65.32
81025;BME280;70500;50.292;6.666;2023-08-17T03:02:07;96602.38;;;23.04;65.35
81025;BME280;70500;50.292;6.666;2023-08-17T03:04:36;96598.88;;;23.04;65.79
81025;BME280;70500;50.292;6.666;2023-08-17T03:07:06;96610.34;;;23.02;65.79
81025;BME280;70500;50.292;6.666;2023-08-17T03:09:36;96604.88;;;23.02;65.80
81025;BME280;70500;50.292;6.666;2023-08-17T03:12:06;96600.63;;;23.01;65.33
81025;BME280;70500;50.292;6.666;2023-08-17T03:14:35;96604.13;;;23.02;65.97
81025;BME280;70500;50.292;6.666;2023-08-17T03:17:04;96600.63;;;23.01;65.60
81025;BME280;70500;50.292;6.666;2023-08-17T03:19:36;96599.88;;;23.00;65.66
81025;BME280;70500;50.292;6.666;2023-08-17T03:22:05;96602.38;;;22.98;65.58
81025;BME280;70500;50.292;6.666;2023-08-17T03:24:35;96597.63;;;22.99;65.91
81025;BME280;70500;50.292;6.666;2023-08-17T03:27:04;96603.13;;;22.99;66.01
81025;BME280;70500;50.292;6.666;2023-08-17T03:29:34;96602.38;;;22.98;65.64
81025;BME280;70500;50.292;6.666;2023-08-17T03:32:04;96598.13;;;22.97;65.48
81025;BME280;70500;50.292;6.666;2023-08-17T03:34:33;96595.88;;;22.96;65.91
81025;BME280;70500;50.292;6.666;2023-08-17T03:37:05;96598.88;;;22.98;65.96
81025;BME280;70500;50.292;6.666;2023-08-17T03:39:34;96605.63;;;22.97;65.74
81025;BME280;70500;50.292;6.666;2023-08-17T03:42:03;96602.13;;;22.96;65.94
81025;BME280;70500;50.292;6.666;2023-08-17T03:44:33;96607.59;;;22.96;65.74
81025;BME280;70500;50.292;6.666;2023-08-17T03:47:02;96602.13;;;22.96;65.73
81025;BME280;70500;50.292;6.666;2023-08-17T03:49:31;96601.63;;;22.98;65.60
81025;BME280;70500;50.292;6.666;2023-08-17T03:52:00;96595.63;;;22.99;65.52
81025;BME280;70500;50.292;6.666;2023-08-17T03:54:30;96606.63;;;22.99;65.47
81025;BME280;70500;50.292;6.666;2023-08-17T03:57:00;96601.13;;;22.99;65.74
81025;BME280;70500;50.292;6.666;2023-08-17T03:59:30;96610.59;;;22.98;66.08
81025;BME280;70500;50.292;6.666;2023-08-17T04:01:59;96606.38;;;22.97;65.65
81025;BME280;70500;50.292;6.666;2023-08-17T04:04:28;96610.59;;;22.98;66.04
81025;BME280;70500;50.292;6.666;2023-08-17T04:06:58;96613.09;;;22.96;66.11
81025;BME280;70500;50.292;6.666;2023-08-17T04:09:27;96610.34;;;22.96;66.08
81025;BME280;70500;50.292;6.666;2023-08-17T04:11:58;96620.59;;;22.96;65.96
81025;BME280;70500;50.292;6.666;2023-08-17T04:14:27;96614.09;;;22.93;65.94
81025;BME280;70500;50.292;6.666;2023-08-17T04:16:56;96617.38;;;22.92;65.37
81025;BME280;70500;50.292;6.666;2023-08-17T04:19:25;96622.84;;;22.92;65.90
81025;BME280;70500;50.292;6.666;2023-08-17T04:21:55;96623.56;;;22.92;65.68
81025;BME280;70500;50.292;6.666;2023-08-17T04:24:24;96628.06;;;22.95;65.67
81025;BME280;70500;50.292;6.666;2023-08-17T04:26:53;96633.31;;;22.93;65.07
81025;BME280;70500;50.292;6.666;2023-08-17T04:29:24;96622.59;;;22.95;65.04
81025;BME280;70500;50.292;6.666;2023-08-17T04:31:53;96627.81;;;22.93;65.55
81025;BME280;70500;50.292;6.666;2023-08-17T04:34:22;96630.81;;;22.95;64.93
81025;BME280;70500;50.292;6.666;2023-08-17T04:36:51;96632.06;;;22.94;64.82
81025;BME280;70500;50.292;6.666;2023-08-17T04:39:20;96635.56;;;22.95;64.68
81025;BME280;70500;50.292;6.666;2023-08-17T04:41:50;96637.28;;;22.92;65.39
81025;BME280;70500;50.292;6.666;2023-08-17T04:44:27;96633.31;;;22.88;65.16
81025;BME280;70500;50.292;6.666;2023-08-17T04:46:56;96635.81;;;22.86;65.70
81025;BME280;70500;50.292;6.666;2023-08-17T04:49:26;96635.31;;;22.87;65.60
81025;BME280;70500;50.292;6.666;2023-08-17T04:51:55;96629.56;;;22.85;65.13
81025;BME280;70500;50.292;6.666;2023-08-17T04:54:24;96636.31;;;22.84;65.18
81025;BME280;70500;50.292;6.666;2023-08-17T04:56:53;96627.81;;;22.82;65.33
81025;BME280;70500;50.292;6.666;2023-08-17T04:59:22;96635.81;;;22.86;65.29
81025;BME280;70500;50.292;6.666;2023-08-17T05:01:54;96641.06;;;22.84;65.17
81025;BME280;70500;50.292;6.666;2023-08-17T05:04:23;96636.06;;;22.82;65.12
81025;BME280;70500;50.292;6.666;2023-08-17T05:06:53;96635.06;;;22.80;65.35
81025;BME280;70500;50.292;6.666;2023-08-17T05:09:22;96631.81;;;22.81;65.21
81025;BME280;70500;50.292;6.666;2023-08-17T05:11:52;96626.31;;;22.81;64.69
81025;BME280;70500;50.292;6.666;2023-08-17T05:14:22;96628.81;;;22.79;65.22
81025;BME280;70500;50.292;6.666;2023-08-17T05:16:51;96623.31;;;22.79;64.75
81025;BME280;70500;50.292;6.666;2023-08-17T05:19:21;96632.56;;;22.82;64.63
81025;BME280;70500;50.292;6.666;2023-08-17T05:21:51;96631.56;;;22.79;65.08
81025;BME280;70500;50.292;6.666;2023-08-17T05:24:22;96632.31;;;22.80;64.99
81025;BME280;70500;50.292;6.666;2023-08-17T05:26:51;96637.53;;;22.78;64.52
81025;BME280;70500;50.292;6.666;2023-08-17T05:29:20;96640.53;;;22.80;64.81
81025;BME280;70500;50.292;6.666;2023-08-17T05:31:49;96634.31;;;22.79;64.84
81025;BME280;70500;50.292;6.666;2023-08-17T05:34:19;96646.03;;;22.80;64.47
81025;BME280;70500;50.292;6.666;2023-08-17T05:36:49;96653.50;;;22.79;64.56
81025;BME280;70500;50.292;6.666;2023-08-17T05:39:18;96652.00;;;22.78;64.30
81025;BME280;70500;50.292;6.666;2023-08-17T05:41:48;96652.75;;;22.79;64.46
81025;BME280;70500;50.292;6.666;2023-08-17T05:44:17;96647.03;;;22.77;64.71
81025;BME280;70500;50.292;6.666;2023-08-17T05:46:46;96650.50;;;22.77;64.79
81025;BME280;70500;50.292;6.666;2023-08-17T05:49:16;96657.25;;;22.76;64.37
81025;BME280;70500;50.292;6.666;2023-08-17T05:51:45;96665.97;;;22.75;64.70
81025;BME280;70500;50.292;6.666;2023-08-17T05:54:15;96666.22;;;22.77;64.12
81025;BME280;70500;50.292;6.666;2023-08-17T05:56:45;96673.97;;;22.78;64.55
81025;BME280;70500;50.292;6.666;2023-08-17T05:59:15;96668.47;;;22.78;64.23
81025;BME280;70500;50.292;6.666;2023-08-17T06:01:44;96663.50;;;22.77;64.21
81025;BME280;70500;50.292;6.666;2023-08-17T06:04:13;96667.22;;;22.79;64.50
81025;BME280;70500;50.292;6.666;2023-08-17T06:06:42;96661.50;;;22.77;64.19
81025;BME280;70500;50.292;6.666;2023-08-17T06:09:12;96658.50;;;22.75;64.37
81025;BME280;70500;50.292;6.666;2023-08-17T06:14:12;96661.75;;;22.79;64.26
81025;BME280;70500;50.292;6.666;2023-08-17T06:16:41;96663.50;;;22.77;64.43
81025;BME280;70500;50.292;6.666;2023-08-17T06:19:10;96666.22;;;22.77;64.42
81025;BME280;70500;50.292;6.666;2023-08-17T06:21:39;96669.22;;;22.73;64.06
81025;BME280;70500;50.292;6.666;2023-08-17T06:24:08;96665.97;;;22.75;64.43
81025;BME280;70500;50.292;6.666;2023-08-17T06:26:37;96664.72;;;22.76;64.14
81025;BME280;70500;50.292;6.666;2023-08-17T06:29:08;96673.72;;;22.76;63.96
81025;BME280;70500;50.292;6.666;2023-08-17T06:31:37;96670.72;;;22.74;64.23
81025;BME280;70500;50.292;6.666;2023-08-17T06:34:06;96676.94;;;22.75;64.44
81025;BME280;70500;50.292;6.666;2023-08-17T06:36:38;96669.72;;;22.77;64.23
81025;BME280;70500;50.292;6.666;2023-08-17T06:39:07;96675.72;;;22.76;64.24
81025;BME280;70500;50.292;6.666;2023-08-17T06:41:37;96671.22;;;22.73;64.09
81025;BME280;70500;50.292;6.666;2023-08-17T06:49:04;96677.44;;;22.73;64.36
81025;BME280;70500;50.292;6.666;2023-08-17T06:51:34;96678.44;;;22.76;64.13
81025;BME280;70500;50.292;6.666;2023-08-17T06:54:04;96670.22;;;22.76;63.88
81025;BME280;70500;50.292;6.666;2023-08-17T06:56:33;96668.72;;;22.75;64.04
81025;BME280;70500;50.292;6.666;2023-08-17T06:59:02;96671.47;;;22.75;63.79
81025;BME280;70500;50.292;6.666;2023-08-17T07:01:31;96678.72;;;22.72;63.65
81025;BME280;70500;50.292;6.666;2023-08-17T07:04:02;96679.69;;;22.75;63.89
81025;BME280;70500;50.292;6.666;2023-08-17T07:09:00;96674.69;;;22.73;64.11
81025;BME280;70500;50.292;6.666;2023-08-17T07:11:33;96679.47;;;22.73;63.97
81025;BME280;70500;50.292;6.666;2023-08-17T07:14:02;96673.47;;;22.74;63.67
81025;BME280;70500;50.292;6.666;2023-08-17T07:16:31;96673.97;;;22.73;63.95
81025;BME280;70500;50.292;6.666;2023-08-17T07:19:02;96672.22;;;22.75;63.51
81025;BME280;70500;50.292;6.666;2023-08-17T07:21:31;96675.97;;;22.78;63.57
81025;BME280;70500;50.292;6.666;2023-08-17T07:24:11;96675.47;;;22.79;63.74
81025;BME280;70500;50.292;6.666;2023-08-17T07:26:41;96675.47;;;22.79;63.43
81025;BME280;70500;50.292;6.666;2023-08-17T07:29:10;96675.47;;;22.79;63.61
81025;BME280;70500;50.292;6.666;2023-08-17T07:31:40;96682.72;;;22.82;63.83
81025;BME280;70500;50.292;6.666;2023-08-17T07:34:12;96683.97;;;22.81;63.84
81025;BME280;70500;50.292;6.666;2023-08-17T07:36:41;96687.94;;;22.80;63.88
81025;BME280;70500;50.292;6.666;2023-08-17T07:39:10;96682.47;;;22.80;63.67
81025;BME280;70500;50.292;6.666;2023-08-17T07:41:39;96693.44;;;22.80;63.35
81025;BME280;70500;50.292;6.666;2023-08-17T07:44:08;96687.19;;;22.80;63.44
81025;BME280;70500;50.292;6.666;2023-08-17T07:46:39;96687.19;;;22.80;63.35
81025;BME280;70500;50.292;6.666;2023-08-17T07:49:08;96689.44;;;22.81;63.66
81025;BME280;70500;50.292;6.666;2023-08-17T07:51:58;96683.22;;;22.81;63.79
81025;BME280;70500;50.292;6.666;2023-08-17T07:54:28;96683.22;;;22.81;63.35
81025;BME280;70500;50.292;6.666;2023-08-17T07:56:57;96685.47;;;22.82;63.16
81025;BME280;70500;50.292;6.666;2023-08-17T07:59:26;96686.69;;;22.81;63.33
81025;BME280;70500;50.292;6.666;2023-08-17T08:01:55;96689.44;;;22.81;63.57
81025;BME280;70500;50.292;6.666;2023-08-17T08:04:24;96687.94;;;22.80;63.77
81025;BME280;70500;50.292;6.666;2023-08-17T08:06:54;96685.94;;;22.81;63.68
81025;BME280;70500;50.292;6.666;2023-08-17T08:09:24;96689.44;;;22.81;63.80
81025;BME280;70500;50.292;6.666;2023-08-17T08:11:53;96690.19;;;22.82;63.26
81025;BME280;70500;50.292;6.666;2023-08-17T08:14:22;96679.22;;;22.82;63.48
81025;BME280;70500;50.292;6.666;2023-08-17T08:16:52;96679.22;;;22.82;63.72
81025;BME280;70500;50.292;6.666;2023-08-17T08:19:21;96678.72;;;22.83;63.18
81025;BME280;70500;50.292;6.666;2023-08-17T08:21:50;96671.72;;;22.82;63.38
81025;BME280;70500;50.292;6.666;2023-08-17T08:24:20;96675.22;;;22.83;63.15
81025;BME280;70500;50.292;6.666;2023-08-17T08:27:05;96665.50;;;22.82;63.35
81025;BME280;70500;50.292;6.666;2023-08-17T08:29:34;96670.97;;;22.82;63.24
81025;BME280;70500;50.292;6.666;2023-08-17T08:32:04;96672.00;;;22.84;63.36
81025;BME280;70500;50.292;6.666;2023-08-17T08:34:33;96666.50;;;22.84;63.53
81025;BME280;70500;50.292;6.666;2023-08-17T08:37:02;96668.50;;;22.84;63.16
81025;BME280;70500;50.292;6.666;2023-08-17T08:39:32;96673.22;;;22.83;63.57
81025;BME280;70500;50.292;6.666;2023-08-17T08:42:01;96662.50;;;22.85;63.15
81025;BME280;70500;50.292;6.666;2023-08-17T08:44:31;96669.00;;;22.88;63.47
81025;BME280;70500;50.292;6.666;2023-08-17T08:47:01;96659.53;;;22.89;63.17
81025;BME280;70500;50.292;6.666;2023-08-17T08:49:34;96667.75;;;22.89;63.04
81025;BME280;70500;50.292;6.666;2023-08-17T08:52:14;96659.53;;;22.89;63.23
81025;BME280;70500;50.292;6.666;2023-08-17T08:54:50;96663.03;;;22.89;63.29
81025;BME280;70500;50.292;6.666;2023-08-17T08:57:21;96664.28;;;22.88;62.90
81025;BME280;70500;50.292;6.666;2023-08-17T08:59:53;96671.25;;;22.89;62.79
81025;BME280;70500;50.292;6.666;2023-08-17T09:02:25;96680.25;;;22.90;62.75
81025;BME280;70500;50.292;6.666;2023-08-17T09:04:55;96676.00;;;22.89;62.69
81025;BME280;70500;50.292;6.666;2023-08-17T09:07:27;96676.00;;;22.89;63.36
81025;BME280;70500;50.292;6.666;2023-08-17T09:09:58;96668.50;;;22.89;63.48
81025;BME280;70500;50.292;6.666;2023-08-17T09:12:29;96670.50;;;22.89;62.89
81025;BME280;70500;50.292;6.666;2023-08-17T09:15:09;96671.25;;;22.89;62.89
81025;BME280;70500;50.292;6.666;2023-08-17T09:17:39;96674.75;;;22.90;63.06
81025;BME280;70500;50.292;6.666;2023-08-17T09:20:09;96669.25;;;22.90;63.27
81025;BME280;70500;50.292;6.666;2023-08-17T09:22:43;96672.00;;;22.90;63.39
81025;BME280;70500;50.292;6.666;2023-08-17T09:25:22;96663.78;;;22.90;62.71
81025;BME280;70500;50.292;6.666;2023-08-17T09:27:51;96660.53;;;22.91;62.90
81025;BME280;70500;50.292;6.666;2023-08-17T09:30:21;96660.53;;;22.91;63.01
81025;BME280;70500;50.292;6.666;2023-08-17T09:32:51;96651.53;;;22.91;62.98
81025;BME280;70500;50.292;6.666;2023-08-17T09:35:20;96659.78;;;22.91;62.59
81025;BME280;70500;50.292;6.666;2023-08-17T09:37:51;96657.03;;;22.91;62.70
81025;BME280;70500;50.292;6.666;2023-08-17T09:40:20;96649.56;;;22.91;63.22
81025;BME280;70500;50.292;6.666;2023-08-17T09:42:51;96647.56;;;22.92;63.24
81025;BME280;70500;50.292;6.666;2023-08-17T09:45:23;96639.31;;;22.92;63.02
81025;BME280;70500;50.292;6.666;2023-08-17T09:47:52;96645.78;;;22.94;62.74
81025;BME280;70500;50.292;6.666;2023-08-17T09:50:22;96642.53;;;22.96;63.03
81025;BME280;70500;50.292;6.666;2023-08-17T09:52:53;96646.03;;;22.96;62.90
81025;BME280;70500;50.292;6.666;2023-08-17T09:55:23;96655.03;;;22.97;63.04
81025;BME280;70500;50.292;6.666;2023-08-17T09:57:52;96651.78;;;22.98;63.04
81025;BME280;70500;50.292;6.666;2023-08-17T10:00:24;96649.28;;;23.00;62.67
81025;BME280;70500;50.292;6.666;2023-08-17T10:02:55;96655.53;;;23.01;62.76
81025;BME280;70500;50.292;6.666;2023-08-17T10:05:30;96651.53;;;23.02;62.96
81025;BME280;70500;50.292;6.666;2023-08-17T10:08:02;96649.06;;;23.04;62.43
81025;BME280;70500;50.292;6.666;2023-08-17T10:10:37;96650.28;;;23.03;62.32
81025;BME280;70500;50.292;6.666;2023-08-17T10:13:09;96660.03;;;23.04;62.75
81025;BME280;70500;50.292;6.666;2023-08-17T10:15:47;96657.03;;;23.08;62.54
81025;BME280;70500;50.292;6.666;2023-08-17T10:18:29;96666.78;;;23.09;62.68
81025;BME280;70500;50.292;6.666;2023-08-17T10:21:02;96663.28;;;23.08;62.15
81025;BME280;70500;50.292;6.666;2023-08-17T10:23:33;96674.53;;;23.10;62.53
81025;BME280;70500;50.292;6.666;2023-08-17T10:26:10;96672.00;;;23.12;62.52
81025;BME280;70500;50.292;6.666;2023-08-17T10:28:40;96671.25;;;23.12;62.53
81025;BME280;70500;50.292;6.666;2023-08-17T10:31:11;96672.75;;;23.13;62.45
81025;BME280;70500;50.292;6.666;2023-08-17T10:33:42;96667.25;;;23.13;61.98
81025;BME280;70500;50.292;6.666;2023-08-17T10:36:14;96672.75;;;23.13;62.07
81025;BME280;70500;50.292;6.666;2023-08-17T10:38:44;96677.00;;;23.14;61.95
81025;BME280;70500;50.292;6.666;2023-08-17T10:41:14;96664.00;;;23.14;62.42
81025;BME280;70500;50.292;6.666;2023-08-17T10:43:56;96669.75;;;23.16;62.26
81025;BME280;70500;50.292;6.666;2023-08-17T10:46:34;96667.00;;;23.16;62.21
81025;BME280;70500;50.292;6.666;2023-08-17T10:49:05;96665.50;;;23.15;62.22
81025;BME280;70500;50.292;6.666;2023-08-17T10:51:34;96667.75;;;23.17;62.31
81025;BME280;70500;50.292;6.666;2023-08-17T10:54:04;96663.78;;;23.18;61.80
81025;BME280;70500;50.292;6.666;2023-08-17T10:56:33;96670.00;;;23.18;62.00
81025;BME280;70500;50.292;6.666;2023-08-17T10:59:02;96669.25;;;23.18;61.91
81025;BME280;70500;50.292;6.666;2023-08-17T11:01:51;96670.75;;;23.19;62.20
81025;BME280;70500;50.292;6.666;2023-08-17T11:04:21;96668.00;;;23.19;61.95
81025;BME280;70500;50.292;6.666;2023-08-17T11:07:00;96666.03;;;23.19;61.89
81025;BME280;70500;50.292;6.666;2023-08-17T11:09:30;96666.78;;;23.20;62.04
81025;BME280;70500;50.292;6.666;2023-08-17T11:12:00;96664.03;;;23.20;61.67
81025;BME280;70500;50.292;6.666;2023-08-17T11:14:33;96659.28;;;23.20;61.92
81025;BME280;70500;50.292;6.666;2023-08-17T11:17:04;96664.78;;;23.20;61.66
81025;BME280;70500;50.292;6.666;2023-08-17T11:19:33;96664.03;;;23.20;62.07
81025;BME280;70500;50.292;6.666;2023-08-17T11:22:02;96666.78;;;23.20;62.15
81025;BME280;70500;50.292;6.666;2023-08-17T11:24:32;96660.53;;;23.19;61.95
81025;BME280;70500;50.292;6.666;2023-08-17T11:27:01;96667.25;;;23.18;61.84
81025;BME280;70500;50.292;6.666;2023-08-17T11:29:31;96667.25;;;23.18;61.60
81025;BME280;70500;50.292;6.666;2023-08-17T11:32:00;96675.00;;;23.20;62.21
81025;BME280;70500;50.292;6.666;2023-08-17T11:34:31;96677.00;;;23.19;61.77
81025;BME280;70500;50.292;6.666;2023-08-17T11:37:00;96677.75;;;23.20;62.16
81025;BME280;70500;50.292;6.666;2023-08-17T11:39:33;96675.00;;;23.20;61.54
81025;BME280;70500;50.292;6.666;2023-08-17T11:42:03;96679.75;;;23.19;61.55
81025;BME280;70500;50.292;6.666;2023-08-17T11:44:33;96682.50;;;23.19;61.72
81025;BME280;70500;50.292;6.666;2023-08-17T11:47:02;96682.00;;;23.21;62.21
81025;BME280;70500;50.292;6.666;2023-08-17T11:49:32;96686.00;;;23.20;61.65
81025;BME280;70500;50.292;6.666;2023-08-17T11:52:08;96682.00;;;23.21;61.48
81025;BME280;70500;50.292;6.666;2023-08-17T11:54:40;96682.00;;;23.21;61.50
81025;BME280;70500;50.292;6.666;2023-08-17T11:57:09;96682.00;;;23.21;61.81
81025;BME280;70500;50.292;6.666;2023-08-17T11:59:38;96682.00;;;23.21;61.85
81025;BME280;70500;50.292;6.666;2023-08-17T12:02:08;96671.00;;;23.21;61.58
81025;BME280;70500;50.292;6.666;2023-08-17T12:04:39;96682.75;;;23.21;61.57
81025;BME280;70500;50.292;6.666;2023-08-17T12:07:08;96677.25;;;23.21;61.99
81025;BME280;70500;50.292;6.666;2023-08-17T12:09:37;96671.00;;;23.21;61.41
81025;BME280;70500;50.292;6.666;2023-08-17T12:12:07;96671.75;;;23.21;61.53
81025;BME280;70500;50.292;6.666;2023-08-17T12:14:41;96669.78;;;23.22;62.00
81025;BME280;70500;50.292;6.666;2023-08-17T12:17:14;96664.78;;;23.20;61.88
81025;BME280;70500;50.292;6.666;2023-08-17T12:19:49;96660.78;;;23.21;61.83
81025;BME280;70500;50.292;6.666;2023-08-17T12:22:19;96658.03;;;23.21;62.01
81025;BME280;70500;50.292;6.666;2023-08-17T12:24:48;96662.28;;;23.22;61.58
81025;BME280;70500;50.292;6.666;2023-08-17T12:27:17;96656.78;;;23.22;61.47
81025;BME280;70500;50.292;6.666;2023-08-17T12:29:47;96663.03;;;23.23;61.86
81025;BME280;70500;50.292;6.666;2023-08-17T12:32:18;96660.28;;;23.23;61.94
81025;BME280;70500;50.292;6.666;2023-08-17T12:34:48;96651.53;;;23.24;61.91
81025;BME280;70500;50.292;6.666;2023-08-17T12:37:20;96644.06;;;23.25;61.45
81025;BME280;70500;50.292;6.666;2023-08-17T12:39:50;96645.56;;;23.26;61.42
81025;BME280;70500;50.292;6.666;2023-08-17T12:42:19;96636.56;;;23.25;61.18
81025;BME280;70500;50.292;6.666;2023-08-17T12:44:48;96642.81;;;23.26;61.71
81025;BME280;70500;50.292;6.666;2023-08-17T12:47:17;96631.81;;;23.26;61.73
81025;BME280;70500;50.292;6.666;2023-08-17T12:49:46;96638.06;;;23.26;61.65
81025;BME280;70500;50.292;6.666;2023-08-17T12:52:17;96638.81;;;23.27;61.63
81025;BME280;70500;50.292;6.666;2023-08-17T12:54:46;96636.06;;;23.27;61.18
81025;BME280;70500;50.292;6.666;2023-08-17T12:57:20;96638.06;;;23.26;61.41
81025;BME280;70500;50.292;6.666;2023-08-17T12:59:49;96633.31;;;23.27;61.74
81025;BME280;70500;50.292;6.666;2023-08-17T13:02:19;96631.81;;;23.26;61.47
81025;BME280;70500;50.292;6.666;2023-08-17T13:04:49;96627.81;;;23.27;61.42
81025;BME280;70500;50.292;6.666;2023-08-17T13:07:19;96628.56;;;23.27;61.19
81025;BME280;70500;50.292;6.666;2023-08-17T13:09:48;96628.56;;;23.27;61.23
81025;BME280;70500;50.292;6.666;2023-08-17T13:12:17;96620.34;;;23.27;61.12
81025;BME280;70500;50.292;6.666;2023-08-17T13:14:46;96614.34;;;23.29;61.53
81025;BME280;70500;50.292;6.666;2023-08-17T13:17:16;96607.59;;;23.30;61.58
81025;BME280;70500;50.292;6.666;2023-08-17T13:19:45;96611.09;;;23.30;61.00
81025;BME280;70500;50.292;6.666;2023-08-17T13:22:14;96614.56;;;23.31;61.41
81025;BME280;70500;50.292;6.666;2023-08-17T13:24:44;96607.81;;;23.32;61.38
81025;BME280;70500;50.292;6.666;2023-08-17T13:27:13;96612.06;;;23.33;60.90